< < Back
Terminal Aerodrome Forecast


Current Version              Previous Versions:   1  2  3  4  5  6  7  8  9  

Terminal Aerodrome Forecast

114
FTUS44 KHUN 270758 AAB
TAFHSV
TAF AMD
KHSV 270758Z 2708/2806 18005KT P6SM BKN007
      TEMPO 2708/2712 SCT007
     FM271300 17004KT P6SM SCT015
     FM271600 19006KT P6SM BKN025
     FM271800 20008KT P6SM VCTS SCT035CB
     FM280200 18002KT P6SM BKN250=



Latest METAR

396
SAUS80 KWBC 280200
MTRHSV
METAR KHSV 280153Z 27005KT 3SM +TSRA BR BKN046CB BKN055 OVC070 20/18
A3023 RMK AO2 SLP232 FRQ LTGICCCCG VC NW AND DSNT ALQDS TS VC
NW MOV N CB DSNT ALQDS P0035 T02000183 $


USA.gov is the U.S. government's official web portal to all federal, state and local government web resources and services.